Augusta, Texas
Current Conditions -  °F | °C
As of 10:15 AM on Wednesday 28 Jan 2015 (Local Time) from KDKR Reporting Station
Clear Clear  
Wind Chill: 70°   Ceiling: Unl
Heat Index: 70°   Visibility: 10mi
Dew Point: 52°   Wind: 9mph
Humidity: 53%   Direction: 160°SSE
Pressure: 30.23"   Gusts: NA
Location:  31.4982°N, 95.4177°W
Report Text: KDKR 281615Z AUTO 16008KT 10SM CLR 21/11 A3023 RMK AO2
Loading
Personal Weather Stations






























Interactive Weather Map New forecast layout! Learn more

10-Day Weather Forecast

Advertisements
Track Severe Weather on mobile